Folkston, GA (31537)

6:27 PM EDT on August 28, 2016 (GMT -0400)
APRSWXNET | | Change Station

Elev 88 ft 30.85 °N, 81.99 °W | Updated 28 minutes ago

Scattered Clouds
Scattered Clouds
83 °F
Feels Like 92 °F
N
3
Wind Variable Wind from ESE
Gusts 0.0 mph

Today
High -- | Low -- °F
--% Chance of Precip.
Yesterday
High -- | Low -- °F
Precip. -- in
Pressure 29.99 in
Visibility 10.0 miles
Clouds Scattered Clouds 3500 ft
Scattered Clouds 25000 ft
Heat Index 92 °F
Dew Point 77 °F
Humidity 83%
Rainfall in
Snow Depth Not available.
7:02 AM 7:55 PM
Waning Crescent, 13% visible
METAR KJAX 282156Z 08012KT 10SM SCT035 SCT250 31/23 A2999 RMK AO2 SLP154 T03060228
Pressure 29.99 in
Visibility 10.0 miles
Clouds Scattered Clouds 3500 ft
Scattered Clouds 25000 ft
Heat Index 92 °F
Dew Point 77 °F
Humidity 83%
Rainfall in
Snow Depth Not available.
7:02 AM 7:55 PM
Waning Crescent, 13% visible
METAR KJAX 282156Z 08012KT 10SM SCT035 SCT250 31/23 A2999 RMK AO2 SLP154 T03060228

10-Day Weather Forecast

Almanac

Astronomy

Aug. 28, 2016 Rise Set
Actual Time
Civil Twilight
Nautical Twilight
Astronomical Twilight
Moon
Length of Visible Light
Length of Day
Tomorrow will be .
, % of the Moon is Illuminated

Today's Extremes

State Highs State Lows

Community

WunderPhotos

Upload Photos

1,935,705 photos uploaded!

WunderBlog® & News

Nearby

Air Quality

  Air Quality AQ Index Pollutant
Not available.

Snow Depth

Station Depth Elevation

Earthquake Activity

City Distance Mag. Time & Date
Minimum magnitude displayed is 2.5.

Coastal Water Temperatures

Place Temperature

Stations

Nearby Weather Stations

Station Location Temp. Windchill Dew Point Humidity Wind Precip. Elev Updated Type
                   

Watches & Warnings

There are currently no watches in effect.